Croydon Airport


Codes: YCRY/CDQ
Name: Croydon Airport
City:
Country: Australia
Elevation: 107 ft.

Photos at Croydon Airport


   Photos courtesy of SpottingLog. You can add your own sightings and photos by signing up for a free trial today.



No photos found.

Weather at Croydon Airport


Time (UTC)DescriptionTempratureWindCloud coverageVisibilityPressureHumidity
18-Apr-2024 00:00Broken Clouds25°C11 mph, E77%10000m1013hPa67%
18-Apr-2024 03:00Broken Clouds30°C9 mph, SE79%10000m1011hPa48%
18-Apr-2024 06:00Broken Clouds35°C7 mph, SE61%10000m1008hPa32%
18-Apr-2024 09:00Overcast Clouds31°C4 mph, SE86%10000m1009hPa41%
18-Apr-2024 12:00Overcast Clouds30°C4 mph, E94%10000m1011hPa41%
18-Apr-2024 15:00Overcast Clouds28°C9 mph, E97%10000m1010hPa52%
18-Apr-2024 18:00Overcast Clouds25°C9 mph, E98%10000m1010hPa61%
18-Apr-2024 21:00Overcast Clouds24°C9 mph, E100%10000m1011hPa67%
19-Apr-2024 00:00Overcast Clouds28°C7 mph, E100%10000m1012hPa53%
19-Apr-2024 03:00Overcast Clouds32°C7 mph, E100%10000m1010hPa38%
19-Apr-2024 06:00Overcast Clouds33°C7 mph, SE100%10000m1008hPa34%
19-Apr-2024 09:00Broken Clouds31°C7 mph, SE81%10000m1009hPa43%
19-Apr-2024 12:00Overcast Clouds30°C9 mph, SE90%10000m1011hPa46%
19-Apr-2024 15:00Light Rain27°C4 mph, E100%10000m1011hPa56%
19-Apr-2024 18:00Light Rain27°C4 mph, SE100%10000m1011hPa58%
19-Apr-2024 21:00Overcast Clouds25°C13 mph, SE98%10000m1012hPa52%
20-Apr-2024 00:00Overcast Clouds27°C16 mph, SE99%10000m1013hPa40%
20-Apr-2024 03:00Overcast Clouds30°C13 mph, SE100%10000m1011hPa35%
20-Apr-2024 06:00Overcast Clouds30°C13 mph, S100%10000m1009hPa32%
20-Apr-2024 09:00Overcast Clouds27°C11 mph, S100%10000m1010hPa36%
20-Apr-2024 12:00Overcast Clouds25°C16 mph, S90%10000m1012hPa27%
20-Apr-2024 15:00Overcast Clouds23°C16 mph, SE100%10000m1012hPa24%
20-Apr-2024 18:00Overcast Clouds21°C13 mph, SE100%10000m1011hPa29%
20-Apr-2024 21:00Overcast Clouds20°C13 mph, SE100%10000m1013hPa34%
21-Apr-2024 00:00Overcast Clouds25°C13 mph, SE96%10000m1013hPa30%
21-Apr-2024 03:00Broken Clouds29°C9 mph, S56%10000m1011hPa27%
21-Apr-2024 06:00Broken Clouds30°C11 mph, S52%10000m1009hPa28%
21-Apr-2024 09:00Scattered Clouds25°C9 mph, S43%10000m1010hPa35%
21-Apr-2024 12:00Few Clouds23°C11 mph, S24%10000m1012hPa31%
21-Apr-2024 15:00Clear Sky21°C11 mph, SE9%10000m1011hPa39%
21-Apr-2024 18:00Scattered Clouds20°C9 mph, SE34%10000m1010hPa43%
21-Apr-2024 21:00Scattered Clouds19°C7 mph, SE38%10000m1011hPa44%
22-Apr-2024 00:00Few Clouds26°C11 mph, E21%10000m1012hPa30%
22-Apr-2024 03:00Clear Sky31°C4 mph, E0%10000m1009hPa29%
22-Apr-2024 06:00Clear Sky31°C4 mph, SW0%10000m1006hPa29%
22-Apr-2024 09:00Clear Sky27°C7 mph, SW5%10000m1008hPa36%
22-Apr-2024 12:00Clear Sky25°C9 mph, S4%10000m1010hPa33%
22-Apr-2024 15:00Clear Sky22°C7 mph, SE0%10000m1009hPa39%
22-Apr-2024 18:00Clear Sky21°C7 mph, SE3%10000m1008hPa42%
22-Apr-2024 21:00Clear Sky21°C9 mph, E10%10000m1010hPa45%